Home » Aircrafts » Bombardier » Challenger » Bombardier Challenger 350 | VistaJet | 9H-VCE | Landing at Cannes Mandelieu with ATC

Airport : Cannes Mandelieu Airport (CEQ/LFMD)
Aircraft : Bombardier Challenger 350
Airline : VistaJet Malta
Registration : 9H-VCE
Flight Number : VJT474 (VISTA JET 474)
From : Nice (NCE/LFMN)
Camera : Panasonic HC-V180
Date 11th July 2020
METAR : LFMD 111400Z AUTO 14006KT 040V190 9999 FEW016 27/21 Q1013 NOSIG

Add comment

Your email address will not be published. Required fields are marked *

Log In

Aircraft Sale

There are no ads matching your search criteria.

Categories